Time;durP1;ratioP1;P1;durP2;ratioP2;P2;SDS_P1;SDS_P2;PMS_P1;PMS_P2;Temp;Humidity;BMP_temperature;BMP_pressure;BME280_temperature;BME280_humidity;BME280_pressure;Samples;Min_cycle;Max_cycle;Signal;HPM_P1;HPM_P2
2022/05/24 00:01:23;;;;;;;3.15;2.30;;;22.00;65.10;;;;;;5132460;28;20051;-58
2022/05/24 00:03:49;;;;;;;2.83;2.10;;;21.90;65.00;;;;;;5133109;28;20075;-58
2022/05/24 00:06:14;;;;;;;4.13;2.15;;;21.90;64.90;;;;;;5133459;28;20082;-58
2022/05/24 00:08:40;;;;;;;3.78;2.03;;;22.00;65.00;;;;;;5132453;28;20044;-58
2022/05/24 00:11:06;;;;;;;3.08;1.90;;;22.00;65.00;;;;;;5133051;28;20077;-58
2022/05/24 00:13:31;;;;;;;3.25;1.80;;;21.90;64.80;;;;;;5133087;28;20051;-58
2022/05/24 00:15:57;;;;;;;2.33;1.70;;;22.00;64.90;;;;;;5132150;28;20043;-58
2022/05/24 00:18:24;;;;;;;4.15;1.70;;;22.00;64.90;;;;;;5134465;27;20051;-57
2022/05/24 00:20:51;;;;;;;2.85;1.80;;;22.00;64.90;;;;;;5136766;27;20111;-58
2022/05/24 00:23:17;;;;;;;3.03;1.75;;;22.00;64.90;;;;;;5136612;27;20088;-58
2022/05/24 00:25:48;;;;;;;3.08;1.88;;;22.00;64.90;;;;;;5136867;27;20046;-58
2022/05/24 00:28:14;;;;;;;3.17;1.73;;;22.00;64.90;;;;;;5136326;27;20039;-58
2022/05/24 00:30:40;;;;;;;2.58;1.73;;;22.00;64.80;;;;;;5101575;27;20048;-58
2022/05/24 00:33:05;;;;;;;3.53;1.60;;;22.00;64.80;;;;;;5136926;27;20387;-58
2022/05/24 00:35:31;;;;;;;2.20;1.50;;;21.90;64.80;;;;;;5136143;27;20047;-57
2022/05/24 00:37:57;;;;;;;2.15;1.73;;;21.90;64.70;;;;;;5136599;27;20088;-58
2022/05/24 00:41:17;;;;;;;3.85;1.63;;;21.90;65.40;;;;;;5136834;27;20120;-57
2022/05/24 00:43:55;;;;;;;2.80;1.50;;;21.90;64.70;;;;;;5120558;27;20046;-58
2022/05/24 00:46:27;;;;;;;2.63;1.73;;;21.90;64.70;;;;;;5119142;27;20046;-58
2022/05/24 00:49:03;;;;;;;2.78;1.45;;;21.90;65.10;;;;;;5136238;27;20050;-58
2022/05/24 00:51:34;;;;;;;3.97;1.70;;;21.90;64.70;;;;;;5100747;27;20047;-57
2022/05/24 00:54:00;;;;;;;3.00;1.80;;;21.90;64.70;;;;;;5118180;27;20047;-58
2022/05/24 00:56:48;;;;;;;3.72;1.90;;;21.90;64.70;;;;;;5134959;27;20093;-57
2022/05/24 00:59:17;;;;;;;;;;;21.90;64.70;;;;;;5136937;27;20039;-58
2022/05/24 01:01:47;;;;;;;2.47;1.50;;;21.80;64.50;;;;;;5135921;27;19926;-58
2022/05/24 01:04:14;;;;;;;2.97;1.70;;;21.80;64.70;;;;;;5135667;27;20039;-58
2022/05/24 01:06:39;;;;;;;2.55;1.45;;;21.80;64.60;;;;;;5135978;27;20047;-58
2022/05/24 01:09:07;;;;;;;2.10;1.65;;;21.80;64.60;;;;;;5136171;27;20051;-57
2022/05/24 01:11:34;;;;;;;3.28;1.67;;;21.80;64.60;;;;;;5117160;27;20047;-57
2022/05/24 01:14:00;;;;;;;2.35;1.40;;;21.80;64.50;;;;;;5100585;27;20129;-58
2022/05/24 01:16:25;;;;;;;3.00;2.00;;;21.80;65.10;;;;;;5117822;27;20577;-58
2022/05/24 01:18:51;;;;;;;2.38;1.42;;;21.80;64.50;;;;;;5134514;27;20052;-57
2022/05/24 01:21:16;;;;;;;2.92;1.52;;;21.80;64.50;;;;;;5117374;27;20039;-58
2022/05/24 01:24:05;;;;;;;3.83;1.70;;;21.80;64.50;;;;;;5117123;27;20126;-57
2022/05/24 01:26:50;;;;;;;2.30;1.70;;;21.80;64.50;;;;;;5116719;27;20047;-58
2022/05/24 01:29:16;;;;;;;1.95;1.45;;;21.80;64.40;;;;;;5135408;27;20035;-58
2022/05/24 01:37:11;;;;;;;3.08;1.60;;;21.80;64.50;;;;;;5120239;27;20067;-57
2022/05/24 01:39:36;;;;;;;2.15;1.60;;;21.80;64.40;;;;;;5116268;27;20078;-58
2022/05/24 01:42:03;;;;;;;2.97;1.40;;;21.80;64.40;;;;;;5099850;27;20367;-58
2022/05/24 01:44:48;;;;;;;2.22;1.60;;;21.80;64.40;;;;;;5116975;27;20390;-57
2022/05/24 01:47:14;;;;;;;2.65;1.40;;;21.80;64.40;;;;;;5092555;27;20058;-58
2022/05/24 01:49:41;;;;;;;3.28;1.52;;;21.80;64.40;;;;;;5100137;27;20035;-58
2022/05/24 01:52:15;;;;;;;3.10;1.50;;;21.80;64.40;;;;;;5117350;27;20107;-58
2022/05/24 01:54:46;;;;;;;1.85;1.20;;;21.70;64.40;;;;;;5115663;27;20046;-58
2022/05/24 01:57:23;;;;;;;2.45;1.58;;;21.80;64.40;;;;;;5101167;27;20051;-57
2022/05/24 01:59:49;;;;;;;2.00;1.33;;;21.80;64.40;;;;;;5115929;27;20046;-57
2022/05/24 02:02:15;;;;;;;2.28;1.40;;;21.70;64.30;;;;;;5116369;27;20036;-58
2022/05/24 02:04:41;;;;;;;2.65;1.40;;;21.70;64.30;;;;;;5134294;27;20073;-58
2022/05/24 02:07:18;;;;;;;1.88;1.40;;;21.70;64.30;;;;;;5133087;27;20382;-58
2022/05/24 02:09:45;;;;;;;2.90;1.23;;;21.70;64.30;;;;;;5134560;27;20525;-58
2022/05/24 02:12:55;;;;;;;1.60;1.03;;;21.70;64.30;;;;;;5134976;27;20043;-57
2022/05/24 02:15:27;;;;;;;3.13;1.50;;;21.70;64.30;;;;;;5079103;28;20036;-58
2022/05/24 02:18:12;;;;;;;2.70;1.08;;;21.70;64.30;;;;;;5074919;28;20059;-57
2022/05/24 02:20:39;;;;;;;2.55;1.30;;;21.70;64.30;;;;;;5100509;27;20055;-58
2022/05/24 02:23:05;;;;;;;1.95;1.30;;;21.70;64.30;;;;;;5134807;27;20095;-58
2022/05/24 02:25:43;;;;;;;2.42;1.30;;;21.70;64.30;;;;;;5134453;27;20126;-57
2022/05/24 02:28:10;;;;;;;2.45;1.20;;;21.70;64.30;;;;;;5115798;27;20051;-58
2022/05/24 02:30:49;;;;;;;2.35;1.27;;;21.70;64.30;;;;;;5133705;27;20035;-58
2022/05/24 02:33:15;;;;;;;3.95;1.80;;;21.70;64.30;;;;;;5134476;27;20039;-58
2022/05/24 02:35:41;;;;;;;2.20;1.20;;;21.70;64.30;;;;;;5133491;27;20050;-57
2022/05/24 02:38:06;;;;;;;2.38;1.23;;;21.70;64.30;;;;;;5134580;27;20057;-57
2022/05/24 02:43:16;;;;;;;1.95;1.38;;;21.70;64.30;;;;;;5133820;27;20471;-58
2022/05/24 02:45:41;;;;;;;2.17;1.20;;;21.70;64.30;;;;;;5133726;27;20043;-58
2022/05/24 02:48:08;;;;;;;4.72;1.42;;;21.70;64.30;;;;;;5134485;27;20043;-58
2022/05/24 02:50:33;;;;;;;1.80;1.30;;;21.70;64.30;;;;;;5133317;27;20045;-57
2022/05/24 02:52:59;;;;;;;3.38;1.50;;;21.70;64.30;;;;;;5133882;27;20046;-58
2022/05/24 02:55:24;;;;;;;3.08;1.30;;;21.60;64.20;;;;;;5134305;27;20042;-58
2022/05/24 02:57:50;;;;;;;2.00;1.25;;;21.60;64.10;;;;;;5133109;27;20035;-58
2022/05/24 03:00:18;;;;;;;1.23;1.00;;;21.60;64.10;;;;;;5134088;27;20039;-57
2022/05/24 03:02:43;;;;;;;2.30;1.50;;;21.60;64.10;;;;;;5133062;27;20402;-57
2022/05/24 03:05:10;;;;;;;2.60;1.20;;;21.60;64.10;;;;;;5133626;27;20047;-58
2022/05/24 03:10:20;;;;;;;2.17;1.30;;;21.60;64.10;;;;;;5133320;27;20134;-57
2022/05/24 03:15:30;;;;;;;4.47;1.65;;;21.60;64.10;;;;;;5133868;27;20047;-58
2022/05/24 03:17:55;;;;;;;2.40;1.38;;;21.60;64.10;;;;;;5132758;27;20346;-58
2022/05/24 03:20:21;;;;;;;1.50;1.00;;;21.60;64.10;;;;;;5133420;27;20047;-57
2022/05/24 03:22:47;;;;;;;2.08;1.35;;;21.60;64.10;;;;;;5115165;27;20035;-57
2022/05/24 03:25:13;;;;;;;1.90;1.40;;;21.60;64.10;;;;;;5133124;27;20066;-58
2022/05/24 03:27:39;;;;;;;2.47;1.48;;;21.60;64.10;;;;;;5133853;27;20099;-58
2022/05/24 03:30:05;;;;;;;2.72;1.42;;;21.60;64.10;;;;;;5133624;27;20390;-58
2022/05/24 03:32:30;;;;;;;1.98;1.20;;;21.60;64.10;;;;;;5132861;28;20527;-58
2022/05/24 03:34:56;;;;;;;1.58;1.20;;;21.60;64.70;;;;;;5133443;28;20043;-58
2022/05/24 03:37:21;;;;;;;1.50;1.10;;;21.60;64.10;;;;;;5133725;28;20101;-58
2022/05/24 03:39:47;;;;;;;2.17;1.23;;;21.60;64.10;;;;;;5132434;28;20047;-58
2022/05/24 03:42:13;;;;;;;3.67;1.83;;;21.50;64.00;;;;;;5133485;28;20389;-57
2022/05/24 03:44:39;;;;;;;2.22;1.40;;;21.60;64.00;;;;;;5133699;28;20051;-58
2022/05/24 03:47:04;;;;;;;2.67;1.42;;;21.60;64.00;;;;;;5132577;28;20090;-57
2022/05/24 03:49:30;;;;;;;2.60;1.20;;;21.50;64.00;;;;;;5133668;28;20039;-58
2022/05/24 03:51:55;;;;;;;2.00;1.38;;;21.50;64.00;;;;;;5115300;27;20046;-57
2022/05/24 03:54:21;;;;;;;2.13;1.40;;;21.50;64.00;;;;;;5137273;27;20050;-58
2022/05/24 03:59:31;;;;;;;3.00;1.45;;;21.50;64.00;;;;;;5136702;27;20047;-58
2022/05/24 04:01:56;;;;;;;2.55;1.50;;;21.50;64.00;;;;;;5118616;27;20039;-58
2022/05/24 04:04:22;;;;;;;3.33;1.20;;;21.50;64.00;;;;;;5136913;27;20042;-58
2022/05/24 04:06:47;;;;;;;1.85;1.10;;;21.50;64.00;;;;;;5135246;27;20509;-57
2022/05/24 04:09:13;;;;;;;2.75;1.17;;;21.50;64.00;;;;;;5137428;27;20039;-58
2022/05/24 04:11:38;;;;;;;1.70;1.27;;;21.50;64.00;;;;;;5137514;27;20141;-57
2022/05/24 04:14:04;;;;;;;2.42;1.40;;;21.50;64.00;;;;;;5136575;27;20377;-58
2022/05/24 04:16:31;;;;;;;2.28;1.20;;;21.50;64.00;;;;;;5136907;27;20051;-58
2022/05/24 04:18:56;;;;;;;3.25;1.35;;;21.50;63.90;;;;;;5136295;27;20448;-57
2022/05/24 04:21:22;;;;;;;2.17;1.40;;;21.50;63.90;;;;;;5136475;27;20039;-58
2022/05/24 04:23:47;;;;;;;3.20;1.40;;;21.50;63.90;;;;;;5136987;27;20420;-58
2022/05/24 04:26:13;;;;;;;2.33;1.30;;;21.40;63.80;;;;;;5137181;27;20100;-58
2022/05/24 04:28:39;;;;;;;2.42;1.80;;;21.40;63.80;;;;;;5136331;27;20077;-58
2022/05/24 04:31:04;;;;;;;3.50;1.70;;;21.50;63.90;;;;;;5136525;27;20043;-57
2022/05/24 04:33:30;;;;;;;2.08;1.30;;;21.40;63.80;;;;;;5137005;27;20072;-58
2022/05/24 04:35:56;;;;;;;1.88;1.30;;;21.50;63.90;;;;;;5135915;27;20039;-58
2022/05/24 04:38:22;;;;;;;2.42;1.13;;;21.40;63.80;;;;;;5136954;27;20039;-57
2022/05/24 04:43:32;;;;;;;2.22;1.20;;;21.50;63.80;;;;;;5136128;27;20055;-57
2022/05/24 04:45:58;;;;;;;2.17;1.55;;;21.50;63.80;;;;;;5136359;27;20047;-57
2022/05/24 04:48:23;;;;;;;2.78;1.30;;;21.50;63.90;;;;;;5136116;27;20491;-58
2022/05/24 04:50:56;;;;;;;2.10;1.10;;;21.40;63.80;;;;;;5136258;27;20529;-57
2022/05/24 04:53:22;;;;;;;2.30;1.40;;;21.50;63.90;;;;;;5136582;27;20122;-57
2022/05/24 04:55:49;;;;;;;2.50;1.60;;;21.50;63.90;;;;;;5135067;27;20126;-57
2022/05/24 04:58:18;;;;;;;2.63;1.30;;;21.40;63.80;;;;;;5136463;27;20089;-57
2022/05/24 05:00:44;;;;;;;2.25;1.42;;;21.50;63.90;;;;;;5135914;27;20070;-58
2022/05/24 05:03:10;;;;;;;2.53;1.20;;;21.40;63.90;;;;;;5135168;27;20406;-57
2022/05/24 05:05:36;;;;;;;1.95;1.40;;;21.40;63.90;;;;;;5135996;27;20059;-57
2022/05/24 05:08:02;;;;;;;2.25;1.45;;;21.40;63.80;;;;;;5135869;27;20050;-57
2022/05/24 05:10:28;;;;;;;2.55;1.10;;;21.40;63.90;;;;;;5135232;27;20040;-57
2022/05/24 05:12:53;;;;;;;2.08;1.45;;;21.40;63.90;;;;;;5135640;27;20047;-57
2022/05/24 05:15:19;;;;;;;2.55;1.40;;;21.40;63.90;;;;;;5136260;27;20054;-57
2022/05/24 05:17:44;;;;;;;2.35;1.35;;;21.40;63.90;;;;;;5134961;27;20099;-57
2022/05/24 05:20:10;;;;;;;3.22;1.55;;;21.40;63.90;;;;;;5135400;27;20084;-57
2022/05/24 05:22:37;;;;;;;2.97;1.58;;;21.40;63.90;;;;;;5136125;27;20058;-57
2022/05/24 05:25:02;;;;;;;2.72;1.77;;;21.40;63.90;;;;;;5134960;27;20111;-57
2022/05/24 05:27:28;;;;;;;2.58;1.75;;;21.40;63.90;;;;;;5135987;27;20498;-57
2022/05/24 05:32:38;;;;;;;2.33;1.50;;;21.40;63.80;;;;;;5135091;27;20043;-57
2022/05/24 05:35:04;;;;;;;3.05;1.90;;;21.40;63.90;;;;;;5135551;27;20084;-58
2022/05/24 05:37:30;;;;;;;3.30;1.70;;;21.30;63.90;;;;;;5134808;27;20043;-57
2022/05/24 05:39:56;;;;;;;3.40;1.95;;;21.40;63.80;;;;;;5134690;27;20051;-58
2022/05/24 05:42:21;;;;;;;4.13;2.20;;;21.40;63.80;;;;;;5135301;27;20114;-57
2022/05/24 05:44:50;;;;;;;5.95;1.73;;;21.30;63.80;;;;;;5133834;27;20945;-58
2022/05/24 05:47:16;;;;;;;3.33;1.60;;;21.30;63.80;;;;;;5135393;27;20031;-57
2022/05/24 05:49:42;;;;;;;3.95;1.90;;;21.30;63.80;;;;;;5135124;27;20046;-58
2022/05/24 05:52:08;;;;;;;3.60;2.00;;;21.40;63.90;;;;;;5134149;27;20046;-58
2022/05/24 05:54:33;;;;;;;3.97;2.00;;;21.30;63.70;;;;;;5135344;27;20508;-57
2022/05/24 05:57:02;;;;;;;4.75;2.13;;;21.40;63.80;;;;;;5134997;27;20235;-57
2022/05/24 05:59:28;;;;;;;3.17;2.00;;;21.30;63.70;;;;;;5115843;27;20066;-57
2022/05/24 06:01:58;;;;;;;4.63;2.28;;;21.40;63.70;;;;;;5134794;27;20047;-57
2022/05/24 06:04:23;;;;;;;3.72;2.17;;;21.40;63.70;;;;;;5135105;27;20073;-56
2022/05/24 06:06:49;;;;;;;4.53;2.00;;;21.40;63.70;;;;;;5133568;27;20039;-57
2022/05/24 06:09:15;;;;;;;4.25;2.50;;;21.40;63.70;;;;;;5135012;27;20039;-57
2022/05/24 06:11:41;;;;;;;5.00;2.40;;;21.40;63.70;;;;;;5134309;27;20089;-57
2022/05/24 06:14:07;;;;;;;5.63;2.13;;;21.40;63.70;;;;;;5133884;27;20490;-57
2022/05/24 06:16:33;;;;;;;3.97;2.50;;;21.30;63.70;;;;;;5134767;27;20043;-57
2022/05/24 06:18:58;;;;;;;4.68;2.30;;;21.40;63.70;;;;;;5134283;27;20051;-57
2022/05/24 06:21:24;;;;;;;6.22;2.17;;;21.40;63.80;;;;;;5133776;27;20082;-57
2022/05/24 06:23:49;;;;;;;3.75;2.40;;;21.40;63.80;;;;;;5134113;27;20048;-56
2022/05/24 06:26:18;;;;;;;3.25;2.40;;;21.40;63.80;;;;;;5134400;27;20047;-57
2022/05/24 06:28:44;;;;;;;5.40;2.53;;;21.40;63.80;;;;;;5133604;27;20046;-57
2022/05/24 06:31:09;;;;;;;4.95;2.70;;;21.40;63.80;;;;;;5134468;27;20122;-57
2022/05/24 06:33:35;;;;;;;4.15;2.53;;;21.40;64.10;;;;;;5134262;27;20043;-57
2022/05/24 06:36:00;;;;;;;4.97;2.60;;;21.50;64.30;;;;;;5133188;27;20500;-57
2022/05/24 06:38:26;;;;;;;6.47;2.45;;;21.50;64.50;;;;;;5133997;27;20046;-58
2022/05/24 06:40:51;;;;;;;4.60;2.67;;;21.40;64.50;;;;;;5114880;27;20061;-58
2022/05/24 06:43:17;;;;;;;5.05;2.33;;;21.50;64.60;;;;;;5134055;27;20076;-58
2022/05/24 06:45:42;;;;;;;5.28;3.15;;;21.50;64.60;;;;;;5133562;27;20047;-57
2022/05/24 06:48:11;;;;;;;4.50;2.63;;;21.40;64.60;;;;;;5133564;27;20569;-57
2022/05/24 06:50:37;;;;;;;4.53;2.83;;;21.50;64.60;;;;;;5133305;27;20761;-57
2022/05/24 06:53:03;;;;;;;7.88;3.03;;;21.50;64.70;;;;;;5132861;27;20035;-58
2022/05/24 06:55:28;;;;;;;4.95;2.90;;;21.50;64.60;;;;;;5132584;27;20050;-58
2022/05/24 06:57:54;;;;;;;5.45;3.35;;;21.50;64.50;;;;;;5133686;27;20050;-57
2022/05/24 07:03:11;;;;;;;6.57;2.97;;;21.50;64.60;;;;;;5132656;27;20043;-56
2022/05/24 07:05:37;;;;;;;5.10;3.30;;;21.50;64.50;;;;;;5133974;27;20043;-57
2022/05/24 07:08:02;;;;;;;6.22;3.47;;;21.50;64.40;;;;;;5133633;27;20118;-57
2022/05/24 07:10:29;;;;;;;7.13;3.22;;;21.50;64.30;;;;;;5132929;27;20196;-57
2022/05/24 07:13:02;;;;;;;5.88;3.47;;;21.50;64.40;;;;;;5133337;27;20039;-57
2022/05/24 07:15:28;;;;;;;4.50;3.20;;;21.50;64.50;;;;;;5132811;27;20058;-57
2022/05/24 07:17:54;;;;;;;5.78;3.15;;;21.50;64.40;;;;;;5132641;27;20043;-56
2022/05/24 07:20:19;;;;;;;5.97;3.42;;;21.50;64.50;;;;;;5132935;27;20142;-57
2022/05/24 07:22:45;;;;;;;5.90;3.30;;;21.50;64.60;;;;;;5133347;27;20099;-58
2022/05/24 07:25:10;;;;;;;7.55;3.80;;;21.50;64.60;;;;;;5114709;27;20486;-57
2022/05/24 07:27:36;;;;;;;6.72;3.42;;;21.50;64.60;;;;;;5133231;27;20405;-57
2022/05/24 07:30:04;;;;;;;5.05;3.60;;;21.50;64.60;;;;;;5114121;28;20043;-57
2022/05/24 07:32:31;;;;;;;;;;;21.50;64.50;;;;;;5133873;27;20043;-56
2022/05/24 07:34:59;;;;;;;6.78;3.25;;;21.40;64.40;;;;;;5133305;28;20362;-56
2022/05/24 07:37:24;;;;;;;7.13;3.33;;;21.50;64.50;;;;;;5132719;28;20039;-56
2022/05/24 07:45:47;;;;;;;6.78;3.30;;;21.50;64.60;;;;;;5132994;28;20047;-56
2022/05/24 07:48:04;;;;;;;4.68;2.92;;;21.50;64.60;;;;;;5133094;28;20043;-57
2022/05/24 07:50:30;;;;;;;6.20;3.22;;;21.50;64.70;;;;;;5133388;28;20052;-57
2022/05/24 07:52:55;;;;;;;5.65;3.80;;;21.50;64.70;;;;;;5132240;28;20039;-57
2022/05/24 07:55:21;;;;;;;6.30;3.25;;;21.50;64.60;;;;;;5133287;28;20035;-57
2022/05/24 07:57:46;;;;;;;5.47;3.40;;;21.50;64.60;;;;;;5132941;28;20483;-57
2022/05/24 08:00:12;;;;;;;6.22;2.88;;;21.50;64.50;;;;;;5132265;28;20046;-56
2022/05/24 08:02:38;;;;;;;5.28;2.80;;;21.50;64.40;;;;;;5133286;28;20375;-56
2022/05/24 08:05:05;;;;;;;6.50;3.17;;;21.50;64.40;;;;;;5133437;28;20051;-57
2022/05/24 08:07:31;;;;;;;5.38;3.42;;;21.50;64.50;;;;;;5132305;28;20046;-57
2022/05/24 08:09:57;;;;;;;7.75;3.13;;;21.50;64.50;;;;;;5132504;28;20120;-56
2022/05/24 08:12:22;;;;;;;8.05;3.63;;;21.50;64.60;;;;;;5131996;28;20039;-55
2022/05/24 08:14:48;;;;;;;6.63;2.95;;;21.50;64.60;;;;;;5132466;28;20474;-56
2022/05/24 08:17:13;;;;;;;7.13;3.47;;;21.50;64.60;;;;;;5132737;28;20062;-55
2022/05/24 08:19:39;;;;;;;6.30;3.35;;;21.50;64.60;;;;;;5131582;28;20155;-56
2022/05/24 08:22:05;;;;;;;7.50;3.45;;;21.50;64.60;;;;;;5132441;28;20122;-57
2022/05/24 08:24:30;;;;;;;5.05;2.97;;;21.50;64.60;;;;;;5132252;28;20103;-57
2022/05/24 08:26:56;;;;;;;5.60;3.42;;;21.60;64.70;;;;;;5131755;28;20050;-57
2022/05/24 08:29:21;;;;;;;8.05;3.63;;;21.60;64.70;;;;;;5132968;28;20063;-57
2022/05/24 08:31:47;;;;;;;6.45;2.97;;;21.60;64.70;;;;;;5132389;28;20044;-57
2022/05/24 08:34:14;;;;;;;6.25;3.25;;;21.60;64.70;;;;;;5131911;28;20110;-57
2022/05/24 08:36:39;;;;;;;6.65;3.13;;;21.60;65.40;;;;;;5132445;28;20153;-57
2022/05/24 08:39:05;;;;;;;5.65;3.35;;;21.60;64.90;;;;;;5130566;27;20046;-57
2022/05/24 08:41:56;;;;;;;4.47;2.83;;;21.60;64.90;;;;;;5135492;27;20041;-58
2022/05/24 08:49:59;;;;;;;5.47;3.10;;;21.60;64.70;;;;;;5135085;27;20043;-58
2022/05/24 08:52:31;;;;;;;5.43;2.90;;;21.60;64.60;;;;;;5118232;27;20574;-58
2022/05/24 08:54:57;;;;;;;7.13;3.38;;;21.70;64.60;;;;;;5117753;27;20050;-58
2022/05/24 08:57:50;;;;;;;9.73;3.05;;;21.60;64.40;;;;;;5118077;27;20125;-58
2022/05/24 09:00:21;;;;;;;6.63;3.03;;;21.60;64.40;;;;;;5119438;27;20069;-58
2022/05/24 09:02:47;;;;;;;7.50;3.20;;;21.60;64.30;;;;;;5134904;27;20120;-58
2022/05/24 09:05:22;;;;;;;7.20;3.38;;;21.60;64.20;;;;;;5136119;27;20074;-57
2022/05/24 09:07:54;;;;;;;10.38;3.25;;;21.70;64.30;;;;;;5117064;27;20047;-58
2022/05/24 09:10:21;;;;;;;7.07;3.28;;;21.70;64.30;;;;;;5132078;27;20043;-58
2022/05/24 09:13:11;;;;;;;5.95;3.17;;;21.70;64.40;;;;;;5117203;27;20050;-58
2022/05/24 09:15:50;;;;;;;5.20;3.00;;;21.70;64.40;;;;;;5133996;27;20478;-58
2022/05/24 09:18:34;;;;;;;5.47;2.88;;;21.70;64.50;;;;;;5132609;27;20047;-59
2022/05/24 09:21:00;;;;;;;5.30;3.10;;;21.80;64.50;;;;;;5132658;27;20051;-58
2022/05/24 09:23:46;;;;;;;5.65;2.67;;;21.80;64.40;;;;;;5134752;27;20038;-58
2022/05/24 09:26:20;;;;;;;6.22;2.47;;;21.80;64.50;;;;;;5117296;27;20039;-58
2022/05/24 09:28:50;;;;;;;5.22;2.78;;;21.90;64.50;;;;;;5135111;27;20088;-58
2022/05/24 09:31:39;;;;;;;4.90;2.78;;;21.80;64.40;;;;;;5131714;27;20043;-58
2022/05/24 09:34:28;;;;;;;5.10;2.97;;;21.90;64.40;;;;;;5133708;27;20122;-58
2022/05/24 09:36:58;;;;;;;4.40;2.83;;;21.90;64.40;;;;;;5125902;27;20116;-58
2022/05/24 09:39:33;;;;;;;6.30;3.03;;;21.90;64.20;;;;;;5135887;27;20043;-58
2022/05/24 09:42:13;;;;;;;5.28;2.80;;;21.90;64.10;;;;;;5134923;27;20051;-58
2022/05/24 09:44:47;;;;;;;5.88;2.85;;;22.00;64.20;;;;;;5133322;27;20035;-58
2022/05/24 09:47:51;;;;;;;5.15;2.67;;;21.90;64.10;;;;;;5133214;27;20117;-58
2022/05/24 09:50:37;;;;;;;6.43;3.05;;;21.90;64.10;;;;;;5116404;27;20091;-58
2022/05/24 09:53:03;;;;;;;5.95;2.65;;;21.90;64.10;;;;;;5133406;27;20031;-58
2022/05/24 09:55:43;;;;;;;5.53;3.20;;;22.00;64.20;;;;;;5134206;27;20394;-58
2022/05/24 09:58:37;;;;;;;4.82;3.25;;;22.00;64.20;;;;;;5133319;27;20135;-58
2022/05/24 10:01:09;;;;;;;7.05;3.17;;;21.90;64.20;;;;;;5113775;27;20039;-58
2022/05/24 10:03:41;;;;;;;6.97;2.92;;;21.90;64.20;;;;;;5134766;27;20046;-58
2022/05/24 10:06:20;;;;;;;6.43;3.28;;;21.90;64.20;;;;;;5133904;27;20458;-58
2022/05/24 10:08:53;;;;;;;8.63;3.20;;;21.90;64.30;;;;;;5134292;27;20039;-57
2022/05/24 10:12:01;;;;;;;5.10;2.90;;;21.90;64.50;;;;;;5116907;27;20055;-57
2022/05/24 10:14:30;;;;;;;6.35;2.92;;;21.80;63.60;;;;;;5099728;27;20062;-57
2022/05/24 10:17:21;;;;;;;7.32;3.85;;;21.80;63.80;;;;;;5134370;27;20039;-57
2022/05/24 10:19:59;;;;;;;8.88;3.40;;;21.80;63.80;;;;;;5115041;27;20047;-57
2022/05/24 10:22:54;;;;;;;6.45;2.80;;;21.70;63.90;;;;;;5134147;27;20036;-59
2022/05/24 10:25:39;;;;;;;4.72;3.20;;;21.70;64.00;;;;;;5111170;27;20410;-58
2022/05/24 10:28:08;;;;;;;5.53;3.10;;;21.70;64.20;;;;;;5115234;27;20074;-57
2022/05/24 10:30:55;;;;;;;6.45;3.80;;;21.70;64.30;;;;;;5133584;27;20110;-57
2022/05/24 10:39:53;;;;;;;5.63;3.45;;;21.80;64.70;;;;;;5121523;27;20088;-57
2022/05/24 10:42:43;;;;;;;7.78;2.92;;;21.80;64.80;;;;;;5115824;27;20482;-57
2022/05/24 10:45:17;;;;;;;5.28;3.22;;;21.80;64.80;;;;;;5116182;27;20043;-58
2022/05/24 10:48:04;;;;;;;4.00;3.33;;;21.90;64.80;;;;;;5115563;27;20109;-58
2022/05/24 10:50:33;;;;;;;6.45;3.60;;;21.80;64.90;;;;;;5116033;27;20054;-58
2022/05/24 10:53:15;;;;;;;6.75;3.75;;;21.80;65.00;;;;;;5133584;27;20051;-58
2022/05/24 10:55:45;;;;;;;5.10;2.92;;;21.90;65.10;;;;;;5114760;27;20116;-57
2022/05/24 10:58:13;;;;;;;5.78;3.03;;;21.80;65.10;;;;;;5134119;27;20039;-58
2022/05/24 11:00:56;;;;;;;5.57;3.42;;;21.80;65.20;;;;;;5115236;27;20158;-58
2022/05/24 11:03:31;;;;;;;4.20;3.28;;;21.80;65.20;;;;;;5113811;27;20035;-57
2022/05/24 11:06:05;;;;;;;4.25;2.90;;;21.80;65.30;;;;;;5112882;27;20035;-57
2022/05/24 11:08:51;;;;;;;5.22;2.97;;;21.70;65.20;;;;;;5115991;27;20039;-57
2022/05/24 11:11:22;;;;;;;4.60;2.95;;;21.70;65.20;;;;;;5115466;27;20051;-57
2022/05/24 11:13:58;;;;;;;4.22;3.03;;;21.70;65.30;;;;;;5114207;27;20124;-57
2022/05/24 11:16:38;;;;;;;6.55;3.58;;;21.70;65.40;;;;;;5107956;28;20123;-57
2022/05/24 11:19:14;;;;;;;8.05;3.80;;;21.70;65.50;;;;;;5083770;28;20114;-57
2022/05/24 11:22:00;;;;;;;8.00;3.90;;;21.70;65.60;;;;;;5074145;28;20527;-57
2022/05/24 11:24:53;;;;;;;8.93;3.78;;;21.70;65.70;;;;;;5090657;28;20066;-57
2022/05/24 11:27:26;;;;;;;7.80;3.53;;;21.70;65.90;;;;;;5092315;28;20048;-57
2022/05/24 11:29:53;;;;;;;8.15;4.18;;;21.70;66.10;;;;;;5089566;28;20063;-58
2022/05/24 11:32:39;;;;;;;10.73;3.95;;;21.70;66.10;;;;;;5068951;28;20090;-57
2022/05/24 11:35:10;;;;;;;8.18;3.53;;;21.70;66.20;;;;;;5071537;28;20044;-57
2022/05/24 11:37:56;;;;;;;6.85;3.17;;;21.70;66.30;;;;;;5088510;28;20115;-58
2022/05/24 11:40:31;;;;;;;4.97;3.30;;;21.70;66.30;;;;;;5089601;28;20117;-57
2022/05/24 11:42:59;;;;;;;7.10;3.65;;;21.70;66.40;;;;;;5089951;28;20040;-58
2022/05/24 11:45:37;;;;;;;8.27;3.70;;;21.70;66.50;;;;;;5090186;28;20043;-58
2022/05/24 11:48:05;;;;;;;7.30;3.85;;;21.70;66.40;;;;;;5090987;28;20052;-57
2022/05/24 11:50:31;;;;;;;9.05;3.55;;;21.70;66.40;;;;;;5090823;28;20098;-57
2022/05/24 11:53:20;;;;;;;7.28;3.50;;;21.70;66.40;;;;;;5091445;28;20047;-57
2022/05/24 11:55:48;;;;;;;6.75;3.10;;;21.70;66.30;;;;;;5091105;28;20044;-59
2022/05/24 11:58:22;;;;;;;7.43;3.63;;;21.70;66.30;;;;;;5046003;28;20049;-58
2022/05/24 12:00:57;;;;;;;6.43;3.40;;;21.80;66.40;;;;;;5031348;28;20049;-57
2022/05/24 12:09:13;;;;;;;6.70;3.10;;;21.80;66.10;;;;;;5031222;28;20046;-57
2022/05/24 12:11:39;;;;;;;5.93;2.70;;;21.80;65.90;;;;;;5030408;28;20811;-57
2022/05/24 12:14:23;;;;;;;4.78;2.80;;;21.80;65.90;;;;;;5049176;28;20091;-57
2022/05/24 12:16:54;;;;;;;5.88;2.78;;;21.80;66.00;;;;;;5035015;28;20485;-58
2022/05/24 12:19:40;;;;;;;6.97;2.80;;;21.90;66.10;;;;;;5052331;28;20053;-57
2022/05/24 12:22:10;;;;;;;6.07;2.92;;;21.90;66.20;;;;;;5074341;28;20063;-58
2022/05/24 12:24:35;;;;;;;8.88;2.80;;;21.90;66.10;;;;;;5074692;28;20041;-57
2022/05/24 12:27:25;;;;;;;5.32;2.45;;;21.90;66.10;;;;;;5074161;28;20049;-57
2022/05/24 12:29:57;;;;;;;4.60;2.17;;;21.90;65.70;;;;;;5073522;28;20125;-58
2022/05/24 12:32:24;;;;;;;5.32;2.92;;;21.80;65.60;;;;;;5056950;28;20080;-58
2022/05/24 12:34:49;;;;;;;5.40;2.58;;;21.80;65.50;;;;;;5074203;28;20097;-57
2022/05/24 12:37:29;;;;;;;4.25;2.20;;;21.80;65.30;;;;;;5073735;28;20036;-58
2022/05/24 12:40:13;;;;;;;6.15;2.47;;;21.90;65.30;;;;;;5072544;28;20071;-58
2022/05/24 12:42:44;;;;;;;4.85;2.40;;;21.80;65.20;;;;;;5074487;28;20448;-58
2022/05/24 12:45:10;;;;;;;3.75;1.90;;;21.90;65.30;;;;;;5075144;28;20048;-57
2022/05/24 12:47:35;;;;;;;5.72;2.05;;;21.90;65.30;;;;;;5072595;28;20051;-58
2022/05/24 12:50:02;;;;;;;9.25;2.70;;;21.90;65.20;;;;;;5074716;28;20480;-58
2022/05/24 12:52:32;;;;;;;6.72;2.25;;;21.90;65.20;;;;;;5074909;28;20052;-58
2022/05/24 12:55:00;;;;;;;5.05;1.80;;;21.80;65.10;;;;;;5071697;28;20510;-58
2022/05/24 12:57:30;;;;;;;3.42;1.90;;;21.80;65.00;;;;;;5074644;28;20044;-56
2022/05/24 12:59:58;;;;;;;4.30;1.90;;;21.80;65.00;;;;;;5073358;28;20495;-57
2022/05/24 13:02:30;;;;;;;5.75;2.25;;;21.90;65.10;;;;;;5073373;28;20040;-57
2022/05/24 13:04:59;;;;;;;6.55;2.00;;;21.90;65.10;;;;;;5073401;28;20048;-57
2022/05/24 13:07:46;;;;;;;4.32;1.92;;;21.90;65.10;;;;;;5072606;28;20037;-57
2022/05/24 13:10:15;;;;;;;6.55;2.13;;;21.90;65.20;;;;;;5072554;28;20056;-58
2022/05/24 13:12:41;;;;;;;4.72;1.88;;;22.00;65.20;;;;;;5073959;28;20037;-57
2022/05/24 13:15:08;;;;;;;3.78;1.80;;;21.90;65.10;;;;;;5072480;28;20059;-57
2022/05/24 13:17:39;;;;;;;4.72;1.88;;;22.00;65.10;;;;;;5073230;28;20044;-57
2022/05/24 13:20:10;;;;;;;3.55;1.60;;;22.00;65.00;;;;;;5072359;28;20512;-57
2022/05/24 13:22:48;;;;;;;5.45;1.85;;;22.10;65.10;;;;;;5073431;28;20052;-57
2022/05/24 13:25:26;;;;;;;3.63;1.53;;;22.10;65.10;;;;;;5073513;28;20120;-57
2022/05/24 13:27:58;;;;;;;4.45;1.95;;;22.10;65.00;;;;;;5073965;28;20079;-57
2022/05/24 13:34:20;;;;;;;4.07;1.77;;;22.20;64.80;;;;;;5073951;28;20044;-58
2022/05/24 13:36:50;;;;;;;10.40;2.22;;;22.20;64.70;;;;;;5047377;28;20478;-58
2022/05/24 13:39:19;;;;;;;2.78;1.30;;;22.20;64.70;;;;;;5072351;28;20057;-57
2022/05/24 13:42:17;;;;;;;5.60;1.80;;;22.20;64.60;;;;;;5073033;28;20041;-57
2022/05/24 13:45:06;;;;;;;2.65;1.50;;;22.30;64.60;;;;;;5072359;28;20037;-57
2022/05/24 13:47:40;;;;;;;2.30;1.52;;;22.30;64.60;;;;;;5071827;28;20549;-57
2022/05/24 13:50:26;;;;;;;5.88;1.65;;;22.40;64.60;;;;;;5071663;28;20883;-58
2022/05/24 13:53:17;;;;;;;4.05;1.50;;;22.30;64.60;;;;;;5070012;28;20056;-57
2022/05/24 13:56:04;;;;;;;4.13;1.80;;;22.30;64.60;;;;;;5070988;28;20399;-57
2022/05/24 13:58:37;;;;;;;3.97;1.67;;;22.30;64.40;;;;;;5070844;28;20036;-57